Terminal Aerodrome Forecast
Issued by NWS

Home | Current Version | Previous Version | Text Only | Print | Product List | Glossary On
Versions: 1 2 3 4 5 6 7 8 9 10 11 12 13 14 15
748
FTUS42 KMLB 302339
TAFFPR
TAF
KFPR 302339Z 3100/3124 13008KT P6SM BKN250
     FM310600 20003KT P6SM SCT250
     FM311400 27005KT P6SM SCT035
     FM312000 08007KT P6SM VCTS SCT035CB BKN250=

USA.gov is the U.S. government's official web portal to all federal, state and local government web resources and services.